Time;durP1;ratioP1;P1;durP2;ratioP2;P2;SDS_P1;SDS_P2;PMS_P1;PMS_P2;Temp;Humidity;BMP_temperature;BMP_pressure;BME280_temperature;BME280_humidity;BME280_pressure;Samples;Min_cycle;Max_cycle;Signal;HPM_P1;HPM_P2
2022/08/18 00:01:44;;;;;;;8.80;5.75;;;;;;;34.79;30.62;97840.97;5059539;28;20058;-81
2022/08/18 00:04:11;;;;;;;5.07;4.30;;;;;;;34.87;30.78;97833.47;5057268;28;20481;-80
2022/08/18 00:06:37;;;;;;;6.25;5.65;;;;;;;34.74;30.75;97840.44;5061179;28;20032;-81
2022/08/18 00:09:06;;;;;;;5.43;4.55;;;;;;;34.37;31.38;97841.78;5057048;28;20095;-80
2022/08/18 00:11:37;;;;;;;5.28;4.78;;;;;;;34.33;31.30;97842.03;5057073;28;20083;-80
2022/08/18 00:14:04;;;;;;;5.82;4.82;;;;;;;34.48;31.51;97841.84;5059474;28;20039;-81
2022/08/18 00:16:30;;;;;;;5.55;5.10;;;;;;;34.17;32.13;97830.56;5057171;28;20036;-81
2022/08/18 00:18:56;;;;;;;5.68;5.18;;;;;;;33.98;32.58;97833.00;5059803;28;20453;-81
2022/08/18 00:21:22;;;;;;;6.95;4.90;;;;;;;33.98;32.19;97828.06;5057808;28;20402;-80
2022/08/18 00:23:49;;;;;;;5.25;4.85;;;;;;;34.36;31.67;97835.31;5058248;28;20048;-80
2022/08/18 00:26:15;;;;;;;5.60;5.10;;;;;;;34.53;31.42;97836.22;5057370;28;20065;-81
2022/08/18 00:28:41;;;;;;;6.88;5.70;;;;;;;34.70;30.91;97830.56;5057383;28;20032;-81
2022/08/18 00:31:07;;;;;;;6.03;5.45;;;;;;;34.96;30.63;97841.81;5055927;28;20036;-81
2022/08/18 00:33:33;;;;;;;5.22;4.72;;;;;;;35.09;30.19;97845.75;5053729;28;20036;-81
2022/08/18 00:35:59;;;;;;;5.72;5.22;;;;;;;35.04;30.56;97849.38;5055701;28;20029;-81
2022/08/18 00:38:26;;;;;;;7.38;5.40;;;;;;;34.98;30.25;97848.56;5059413;28;20021;-81
2022/08/18 00:40:54;;;;;;;5.07;4.68;;;;;;;35.13;29.96;97843.41;5057903;28;20037;-81
2022/08/18 00:43:39;;;;;;;5.28;4.80;;;;;;;35.27;29.82;97853.03;5060201;28;20036;-81
2022/08/18 00:46:15;;;;;;;6.97;5.18;;;;;;;35.32;29.09;97840.84;5055190;28;20469;-81
2022/08/18 00:48:41;;;;;;;5.43;4.93;;;;;;;35.05;29.26;97845.25;5059895;28;20060;-80
2022/08/18 00:51:18;;;;;;;4.32;4.03;;;;;;;34.42;29.98;97838.19;5055576;28;20108;-81
2022/08/18 00:53:52;;;;;;;4.10;3.70;;;;;;;34.41;30.24;97843.13;5058224;28;20035;-81
2022/08/18 00:56:32;;;;;;;6.85;4.78;;;;;;;34.55;30.11;97839.31;5060293;28;20028;-81
2022/08/18 00:59:28;;;;;;;4.85;4.45;;;;;;;34.69;29.98;97846.13;5053893;28;20401;-80
2022/08/18 01:02:01;;;;;;;5.78;5.18;;;;;;;34.90;29.72;97844.63;5057216;28;20369;-81
2022/08/18 01:04:51;;;;;;;5.28;4.88;;;;;;;34.22;30.51;97839.13;5053717;28;20052;-81
2022/08/18 01:07:23;;;;;;;4.20;3.80;;;;;;;33.88;30.27;97837.31;5053481;28;20025;-81
2022/08/18 01:09:50;;;;;;;4.40;4.03;;;;;;;34.00;30.36;97831.19;5054114;28;20048;-81
2022/08/18 01:12:17;;;;;;;4.85;4.35;;;;;;;34.20;29.97;97836.00;5058568;28;20104;-81
2022/08/18 01:14:45;;;;;;;4.53;4.13;;;;;;;34.26;30.23;97831.09;5054717;28;20037;-81
2022/08/18 01:22:48;;;;;;;3.10;2.90;;;;;;;33.70;31.14;97823.47;5057454;28;20157;-81
2022/08/18 01:28:03;;;;;;;4.40;4.00;;;;;;;34.09;31.00;97827.38;5055635;28;20071;-81
2022/08/18 01:30:31;;;;;;;6.32;4.63;;;;;;;34.30;30.80;97820.25;5059769;28;20110;-81
2022/08/18 01:32:58;;;;;;;5.10;4.45;;;;;;;33.95;30.64;97819.75;5055675;28;20040;-81
2022/08/18 01:35:26;;;;;;;5.28;4.80;;;;;;;33.60;31.04;97816.41;5056957;28;20037;-81
2022/08/18 01:37:53;;;;;;;5.25;4.75;;;;;;;33.55;31.48;97820.75;5060093;28;20043;-81
2022/08/18 01:40:22;;;;;;;8.38;5.78;;;;;;;33.89;31.34;97816.88;5056052;28;20036;-81
2022/08/18 01:42:48;;;;;;;6.10;5.50;;;;;;;34.15;30.93;97822.50;5058339;28;20029;-81
2022/08/18 01:45:17;;;;;;;5.80;5.30;;;;;;;34.36;30.62;97823.91;5057391;28;20504;-81
2022/08/18 01:47:44;;;;;;;6.60;5.10;;;;;;;34.46;30.00;97833.03;5059336;28;20044;-81
2022/08/18 01:50:12;;;;;;;5.18;4.78;;;;;;;34.39;30.38;97820.03;5058375;28;20087;-81
2022/08/18 01:52:39;;;;;;;5.30;4.80;;;;;;;34.34;30.49;97826.50;5051899;28;20461;-81
2022/08/18 01:55:06;;;;;;;6.72;5.22;;;;;;;34.26;30.55;97821.78;5057235;28;20482;-81
2022/08/18 01:57:34;;;;;;;5.72;5.20;;;;;;;34.11;30.93;97824.03;5056186;28;20679;-81
2022/08/18 02:00:01;;;;;;;5.88;5.40;;;;;;;33.19;31.94;97824.28;5057576;28;20071;-81
2022/08/18 02:02:32;;;;;;;5.03;4.63;;;;;;;33.18;31.76;97819.88;5057513;28;20025;-81
2022/08/18 02:05:12;;;;;;;5.18;4.65;;;;;;;33.62;31.40;97817.44;5059938;28;20474;-81
2022/08/18 02:07:38;;;;;;;5.47;4.97;;;;;;;33.96;30.55;97813.53;5059838;28;20027;-81
2022/08/18 02:10:07;;;;;;;8.27;5.68;;;;;;;34.17;30.86;97816.31;5059076;28;20115;-81
2022/08/18 02:12:34;;;;;;;5.50;5.00;;;;;;;34.28;29.67;97820.00;5054512;28;20029;-81
2022/08/18 02:15:00;;;;;;;6.07;5.50;;;;;;;34.25;29.57;97823.84;5053814;28;20728;-81
2022/08/18 02:17:26;;;;;;;5.10;4.70;;;;;;;34.20;30.46;97824.59;5060886;28;20545;-81
2022/08/18 02:19:52;;;;;;;5.93;5.43;;;;;;;33.86;31.00;97814.25;5052073;28;20025;-81
2022/08/18 02:22:20;;;;;;;4.35;4.05;;;;;;;33.59;30.99;97812.75;5053773;28;20379;-81
2022/08/18 02:24:47;;;;;;;6.05;5.45;;;;;;;33.34;31.90;97805.03;5055454;28;20021;-81
2022/08/18 02:27:15;;;;;;;5.57;5.18;;;;;;;33.20;32.00;97800.22;5056058;28;20037;-81
2022/08/18 02:29:41;;;;;;;6.43;5.82;;;;;;;33.07;32.32;97806.31;5054988;28;20025;-81
2022/08/18 02:32:07;;;;;;;6.30;5.70;;;;;;;33.26;32.32;97801.84;5054937;28;20036;-81
2022/08/18 02:34:34;;;;;;;6.22;5.57;;;;;;;33.61;31.55;97795.94;5057839;28;20064;-81
2022/08/18 02:37:01;;;;;;;7.20;5.88;;;;;;;33.99;30.97;97791.81;5061045;28;20055;-81
2022/08/18 02:39:27;;;;;;;6.75;5.50;;;;;;;34.42;30.07;97799.06;5059803;28;20032;-81
2022/08/18 02:41:53;;;;;;;7.18;5.35;;;;;;;34.61;29.96;97799.44;5059165;28;20044;-81
2022/08/18 02:44:20;;;;;;;6.30;5.38;;;;;;;34.57;29.45;97811.06;5055280;28;20025;-81
2022/08/18 02:46:50;;;;;;;6.05;5.13;;;;;;;34.52;29.59;97808.16;5070140;28;20048;-81
2022/08/18 02:49:16;;;;;;;6.45;5.80;;;;;;;34.56;29.70;97803.81;5061675;28;20059;-81
2022/08/18 02:51:44;;;;;;;6.28;5.60;;;;;;;33.88;29.96;97803.94;5059159;28;20120;-81
2022/08/18 02:54:10;;;;;;;5.13;4.72;;;;;;;33.12;30.70;97799.91;5055845;28;20024;-81
2022/08/18 02:56:37;;;;;;;5.45;4.88;;;;;;;32.89;31.35;97794.44;5056474;28;20079;-81
2022/08/18 02:59:06;;;;;;;5.88;5.32;;;;;;;32.83;31.90;97794.41;5061026;28;20116;-81
2022/08/18 03:01:38;;;;;;;6.50;4.80;;;;;;;33.21;31.54;97791.19;5060628;28;20036;-81
2022/08/18 03:04:07;;;;;;;7.20;5.55;;;;;;;33.63;30.73;97790.53;5060996;28;20056;-81
2022/08/18 03:06:35;;;;;;;5.40;4.90;;;;;;;33.95;30.59;97789.22;5059756;28;20539;-81
2022/08/18 03:09:02;;;;;;;5.75;5.25;;;;;;;34.13;29.94;97792.94;5058770;28;20032;-81
2022/08/18 03:11:29;;;;;;;5.90;5.40;;;;;;;34.25;29.99;97803.91;5060270;28;20029;-81
2022/08/18 03:13:56;;;;;;;5.28;4.85;;;;;;;34.36;29.47;97803.16;5054635;28;20037;-81
2022/08/18 03:16:26;;;;;;;6.32;5.50;;;;;;;34.40;29.72;97807.31;5059060;28;20490;-80
2022/08/18 03:18:53;;;;;;;6.23;5.63;;;;;;;34.16;30.05;97809.03;5054423;28;20040;-80
2022/08/18 03:21:24;;;;;;;6.25;5.45;;;;;;;34.27;29.71;97817.63;5054115;28;20370;-81
2022/08/18 03:23:53;;;;;;;5.75;5.25;;;;;;;34.28;29.90;97819.19;5058259;28;20484;-81
2022/08/18 03:26:21;;;;;;;6.20;5.10;;;;;;;34.35;29.52;97819.50;5059405;28;20396;-81
2022/08/18 03:28:50;;;;;;;5.82;5.30;;;;;;;34.52;29.07;97822.41;5062139;28;20111;-81
2022/08/18 03:31:18;;;;;;;4.78;4.38;;;;;;;34.65;28.60;97817.06;5060486;28;20033;-81
2022/08/18 03:33:46;;;;;;;5.38;4.93;;;;;;;34.61;28.58;97816.53;5057056;28;20025;-81
2022/08/18 03:36:16;;;;;;;5.20;4.70;;;;;;;34.33;28.23;97815.59;5062549;28;20471;-81
2022/08/18 03:38:44;;;;;;;4.10;3.80;;;;;;;33.90;28.87;97823.34;5062498;28;20028;-81
2022/08/18 03:41:12;;;;;;;5.32;4.63;;;;;;;34.03;28.44;97830.19;5061721;28;20028;-81
2022/08/18 03:43:39;;;;;;;5.53;5.13;;;;;;;34.23;28.52;97822.81;5057157;28;20056;-81
2022/08/18 03:46:10;;;;;;;5.07;4.65;;;;;;;33.73;28.42;97816.75;5055301;28;20079;-80
2022/08/18 03:48:39;;;;;;;3.60;3.30;;;;;;;33.70;28.27;97827.06;5064334;28;20036;-81
2022/08/18 03:51:12;;;;;;;4.28;3.88;;;;;;;33.90;28.28;97826.97;5058438;28;20112;-81
2022/08/18 03:53:38;;;;;;;5.65;5.15;;;;;;;33.55;29.14;97840.69;5061933;28;20415;-81
2022/08/18 03:56:16;;;;;;;5.25;4.80;;;;;;;32.63;30.87;97829.34;5057636;28;20029;-80
2022/08/18 03:58:48;;;;;;;5.43;4.95;;;;;;;31.89;32.49;97832.91;5056628;28;20474;-81
2022/08/18 04:01:17;;;;;;;6.75;5.18;;;;;;;32.09;32.56;97833.75;5058755;28;20461;-81
2022/08/18 04:03:46;;;;;;;4.85;4.45;;;;;;;32.81;31.15;97839.66;5060103;28;20070;-81
2022/08/18 04:06:21;;;;;;;5.72;5.13;;;;;;;33.64;30.16;97842.56;5058338;28;20036;-81
2022/08/18 04:08:51;;;;;;;5.82;5.32;;;;;;;34.23;29.25;97837.84;5059340;28;20033;-81
2022/08/18 04:11:17;;;;;;;6.03;4.90;;;;;;;34.82;28.55;97837.88;5059714;28;20036;-81
2022/08/18 04:13:44;;;;;;;4.90;4.50;;;;;;;35.25;28.01;97838.50;5054465;28;20065;-81
2022/08/18 04:16:10;;;;;;;5.65;5.00;;;;;;;35.26;27.67;97843.72;5057312;28;20082;-81
2022/08/18 04:18:36;;;;;;;5.13;4.72;;;;;;;35.32;27.50;97850.22;5058851;28;20040;-80
2022/08/18 04:21:06;;;;;;;4.65;4.25;;;;;;;35.53;27.68;97859.34;5054758;28;20045;-79
2022/08/18 04:23:37;;;;;;;4.55;4.18;;;;;;;35.74;27.63;97860.66;5056971;28;20543;-78
2022/08/18 04:26:04;;;;;;;6.57;5.78;;;;;;;35.90;27.59;97868.44;5064008;28;20090;-79
2022/08/18 04:28:31;;;;;;;5.93;4.53;;;;;;;35.96;27.57;97859.84;5052373;28;20029;-79
2022/08/18 04:30:58;;;;;;;4.95;4.45;;;;;;;35.80;27.47;97864.28;5057379;28;20036;-79
2022/08/18 04:33:27;;;;;;;5.10;4.70;;;;;;;35.71;28.60;97869.50;5060371;28;20025;-79
2022/08/18 04:35:54;;;;;;;5.85;5.25;;;;;;;35.54;28.72;97875.19;5059599;28;20104;-79
2022/08/18 04:38:22;;;;;;;5.15;4.75;;;;;;;34.77;29.50;97869.22;5056218;28;20050;-79
2022/08/18 04:40:48;;;;;;;5.05;4.65;;;;;;;34.49;29.80;97871.94;5052258;28;20505;-79
2022/08/18 04:43:15;;;;;;;5.32;4.82;;;;;;;34.43;30.06;97869.03;5068779;28;20397;-79
2022/08/18 04:45:50;;;;;;;5.20;4.80;;;;;;;34.69;30.76;97868.94;5055675;28;20382;-79
2022/08/18 04:48:16;;;;;;;4.75;4.35;;;;;;;34.79;30.41;97869.50;5064244;28;20064;-79
2022/08/18 04:50:43;;;;;;;5.35;4.95;;;;;;;34.99;30.35;97870.06;5055192;28;20037;-78
2022/08/18 04:55:55;;;;;;;4.85;4.32;;;;;;;35.28;30.06;97880.31;5065208;28;20094;-79
2022/08/18 04:58:23;;;;;;;5.55;5.07;;;;;;;35.10;30.00;97875.09;5064481;28;20363;-79
2022/08/18 05:01:00;;;;;;;5.28;4.72;;;;;;;35.05;31.35;97873.78;5065119;28;20382;-79
2022/08/18 05:03:27;;;;;;;5.25;4.85;;;;;;;35.30;30.69;97872.78;5064012;28;20507;-79
2022/08/18 05:05:56;;;;;;;5.95;5.38;;;;;;;35.69;30.78;97886.34;5066916;28;20608;-79
2022/08/18 05:08:23;;;;;;;6.43;5.90;;;;;;;35.96;29.72;97877.78;5057220;28;20124;-79
2022/08/18 05:10:53;;;;;;;6.65;6.05;;;;;;;36.02;29.95;97884.31;5059628;28;20299;-79
2022/08/18 05:13:20;;;;;;;6.03;5.47;;;;;;;35.92;29.88;97879.31;5053444;28;20524;-79
2022/08/18 05:15:52;;;;;;;6.28;5.78;;;;;;;35.91;30.54;97877.78;5053708;28;20057;-79
2022/08/18 05:18:23;;;;;;;6.32;5.57;;;;;;;35.75;30.72;97875.72;5058422;28;20037;-79
2022/08/18 05:20:54;;;;;;;6.85;6.32;;;;;;;35.40;31.10;97879.78;5064476;28;20059;-79
2022/08/18 05:23:20;;;;;;;6.07;5.50;;;;;;;35.55;32.24;97881.66;5053079;28;20021;-79
2022/08/18 05:25:47;;;;;;;6.00;5.50;;;;;;;35.52;31.90;97880.66;5056855;28;20040;-80
2022/08/18 05:28:13;;;;;;;6.55;5.97;;;;;;;35.62;31.48;97881.16;5063668;28;20037;-80
2022/08/18 05:30:41;;;;;;;6.43;5.82;;;;;;;35.10;33.04;97881.56;5060353;28;20398;-80
2022/08/18 05:33:09;;;;;;;6.43;5.82;;;;;;;35.17;33.53;97883.91;5059251;28;20075;-81
2022/08/18 05:36:02;;;;;;;6.38;5.88;;;;;;;35.65;32.57;97895.19;5052046;28;20113;-79
2022/08/18 05:38:34;;;;;;;5.72;5.32;;;;;;;36.10;31.50;97890.28;5052527;28;20036;-80
2022/08/18 05:41:03;;;;;;;6.57;5.97;;;;;;;35.34;32.32;97884.72;5060025;28;20927;-80
2022/08/18 05:43:30;;;;;;;6.30;5.80;;;;;;;35.37;31.59;97880.84;5070151;28;20032;-80
2022/08/18 05:45:59;;;;;;;6.32;5.82;;;;;;;35.78;31.22;97886.13;5053090;28;20033;-80
2022/08/18 05:48:26;;;;;;;7.25;6.50;;;;;;;36.04;30.95;97893.13;5083232;28;20040;-80
2022/08/18 05:50:54;;;;;;;6.75;6.15;;;;;;;35.69;31.37;97887.13;5078375;28;20036;-80
2022/08/18 05:56:45;;;;;;;7.30;6.60;;;;;;;35.96;32.25;97888.44;5070658;28;20032;-80
2022/08/18 05:58:56;;;;;;;7.65;7.05;;;;;;;34.81;34.67;97887.66;5057607;28;20541;-79
2022/08/18 06:01:33;;;;;;;8.30;7.50;;;;;;;33.97;34.96;97886.34;5055235;28;20029;-79
2022/08/18 06:04:37;;;;;;;10.68;8.55;;;;;;;33.62;34.93;97882.16;5052600;28;20387;-79
2022/08/18 06:07:08;;;;;;;9.43;8.52;;;;;;;33.79;35.68;97874.53;5053101;28;20090;-79
2022/08/18 06:09:50;;;;;;;9.60;8.35;;;;;;;33.83;37.02;97880.78;5074522;28;20123;-79
2022/08/18 06:12:35;;;;;;;8.05;7.38;;;;;;;34.21;36.36;97874.63;5056331;28;20032;-78
2022/08/18 06:15:12;;;;;;;7.68;6.93;;;;;;;35.52;33.04;97877.78;5057658;28;20025;-79
2022/08/18 06:17:38;;;;;;;8.10;7.40;;;;;;;36.01;32.04;97879.88;5056752;28;20041;-79
2022/08/18 06:20:16;;;;;;;8.23;7.53;;;;;;;35.99;33.07;97875.97;5063250;28;20033;-80
2022/08/18 06:23:11;;;;;;;9.50;8.65;;;;;;;35.01;33.18;97878.16;5064751;28;20591;-80
2022/08/18 06:26:00;;;;;;;8.07;7.40;;;;;;;35.03;34.97;97881.28;5064044;28;20504;-80
2022/08/18 06:28:44;;;;;;;7.97;7.28;;;;;;;35.81;33.42;97885.06;5050000;28;20025;-81
2022/08/18 06:31:28;;;;;;;7.60;6.95;;;;;;;35.62;33.91;97879.06;5055369;28;20115;-80
2022/08/18 06:34:05;;;;;;;6.80;6.20;;;;;;;36.41;32.06;97875.66;5058814;28;20037;-80
2022/08/18 06:36:31;;;;;;;7.18;6.53;;;;;;;36.68;31.04;97885.47;5055755;28;20056;-79
2022/08/18 06:39:22;;;;;;;7.75;7.05;;;;;;;36.35;31.86;97885.53;5062808;28;20154;-81
2022/08/18 06:41:50;;;;;;;6.95;6.35;;;;;;;36.59;32.23;97888.63;5075812;28;20108;-81
2022/08/18 06:44:28;;;;;;;9.30;7.10;;;;;;;37.29;30.98;97903.19;5075703;28;20038;-81
2022/08/18 06:46:59;;;;;;;7.72;7.05;;;;;;;36.31;33.50;97902.19;5070735;28;20035;-81
2022/08/18 06:49:31;;;;;;;7.10;6.50;;;;;;;36.63;31.56;97897.72;5066235;28;20072;-81
2022/08/18 06:51:57;;;;;;;5.97;5.47;;;;;;;37.01;31.81;97902.56;5056013;28;20025;-80
2022/08/18 06:54:28;;;;;;;6.00;5.53;;;;;;;37.24;30.84;97911.81;5055636;28;20025;-80
2022/08/18 06:56:56;;;;;;;7.20;6.57;;;;;;;36.37;32.28;97925.84;5055639;28;20108;-81
2022/08/18 06:59:25;;;;;;;6.22;5.70;;;;;;;36.19;31.26;97920.66;5056408;28;20033;-81
2022/08/18 07:02:00;;;;;;;6.22;5.68;;;;;;;36.62;33.44;97911.25;5071096;28;20036;-83
2022/08/18 07:05:00;;;;;;;6.80;6.20;;;;;;;36.36;31.90;97919.34;5075405;28;20549;-82
2022/08/18 07:07:38;;;;;;;7.70;7.05;;;;;;;35.48;33.94;97922.91;5073546;28;20021;-82
2022/08/18 07:10:12;;;;;;;6.65;6.15;;;;;;;35.47;33.96;97921.38;5070470;28;20036;-82
2022/08/18 07:12:38;;;;;;;6.90;6.40;;;;;;;35.81;35.14;97922.19;5060058;28;20029;-81
2022/08/18 07:15:06;;;;;;;6.78;6.25;;;;;;;35.74;34.91;97917.00;5055058;28;20039;-81
2022/08/18 07:17:37;;;;;;;9.43;8.52;;;;;;;35.65;34.86;97915.19;5071308;28;20037;-80
2022/08/18 07:20:08;;;;;;;7.05;6.35;;;;;;;36.65;32.70;97907.34;5058063;28;20041;-81
2022/08/18 07:23:08;;;;;;;6.25;5.65;;;;;;;37.49;31.64;97913.50;5058843;28;20016;-81
2022/08/18 07:25:45;;;;;;;6.53;6.03;;;;;;;37.20;31.71;97908.44;5060584;28;20052;-82
2022/08/18 07:28:36;;;;;;;7.38;6.68;;;;;;;37.34;32.42;97910.94;5054850;28;20029;-81
2022/08/18 07:31:18;;;;;;;6.45;5.88;;;;;;;37.17;32.68;97907.41;5054956;28;20029;-81
2022/08/18 07:33:52;;;;;;;6.28;5.78;;;;;;;37.83;30.72;97909.09;5063060;28;20021;-81
2022/08/18 07:36:23;;;;;;;6.25;5.78;;;;;;;37.33;32.71;97905.75;5073554;28;20162;-81
2022/08/18 07:38:55;;;;;;;6.70;6.10;;;;;;;36.77;32.79;97899.50;5074739;28;20036;-80
2022/08/18 07:41:51;;;;;;;6.32;5.82;;;;;;;37.31;33.58;97897.69;5065489;28;20047;-81
2022/08/18 07:44:33;;;;;;;5.28;4.88;;;;;;;37.42;33.44;97908.34;5072839;28;20052;-81
2022/08/18 07:47:37;;;;;;;5.70;5.20;;;;;;;37.56;31.21;97894.94;5072722;28;20052;-82
2022/08/18 07:50:06;;;;;;;6.82;5.40;;;;;;;37.70;30.48;97888.84;5053581;28;20053;-81
2022/08/18 07:52:40;;;;;;;9.93;6.00;;;;;;;36.87;33.26;97886.47;5056045;28;20052;-80
2022/08/18 07:55:25;;;;;;;6.72;6.03;;;;;;;35.91;32.40;97890.00;5074509;28;20492;-81
2022/08/18 07:58:15;;;;;;;7.28;5.90;;;;;;;37.17;33.30;97886.59;5056013;28;20037;-81
2022/08/18 08:00:52;;;;;;;7.57;6.93;;;;;;;35.99;33.69;97884.56;5074266;28;20063;-80
2022/08/18 08:03:30;;;;;;;6.40;5.90;;;;;;;36.26;34.17;97878.03;5073128;28;20024;-81
2022/08/18 08:06:15;;;;;;;5.93;5.43;;;;;;;37.03;31.46;97881.97;5074248;28;20131;-81
2022/08/18 08:08:57;;;;;;;7.15;6.53;;;;;;;36.66;33.09;97880.31;5060994;28;20064;-80
2022/08/18 08:11:26;;;;;;;7.47;6.65;;;;;;;36.20;33.91;97885.06;5068646;28;20032;-80
2022/08/18 08:13:55;;;;;;;7.63;6.00;;;;;;;37.36;33.80;97885.44;5058714;28;20028;-78
2022/08/18 08:16:39;;;;;;;7.60;6.45;;;;;;;36.86;31.80;97879.16;5053716;28;20417;-79
2022/08/18 08:19:14;;;;;;;6.15;5.55;;;;;;;37.10;32.74;97875.69;5052927;28;20516;-79
2022/08/18 08:22:00;;;;;;;6.38;5.82;;;;;;;36.62;34.18;97871.19;5067977;28;20028;-80
2022/08/18 08:24:52;;;;;;;6.70;6.10;;;;;;;37.05;32.79;97880.16;5062778;28;20527;-80
2022/08/18 08:27:35;;;;;;;7.35;6.63;;;;;;;35.20;33.34;97882.88;5073752;28;20493;-81
2022/08/18 08:30:12;;;;;;;7.18;6.57;;;;;;;34.92;36.44;97882.00;5061752;28;20044;-81
2022/08/18 08:33:04;;;;;;;7.75;6.95;;;;;;;35.83;35.25;97880.38;5068116;28;20505;-81
2022/08/18 08:35:56;;;;;;;9.18;7.18;;;;;;;35.00;34.49;97888.78;5064139;28;20489;-80
2022/08/18 08:38:34;;;;;;;10.25;8.20;;;;;;;34.24;36.52;97882.13;5054016;28;20037;-80
2022/08/18 08:41:06;;;;;;;7.70;7.00;;;;;;;35.11;35.97;97877.41;5052311;28;20079;-81
2022/08/18 08:43:52;;;;;;;7.70;6.88;;;;;;;35.86;34.39;97881.44;5053699;28;20402;-81
2022/08/18 08:46:22;;;;;;;8.10;7.40;;;;;;;35.01;36.31;97883.84;5052980;28;20036;-80
2022/08/18 08:49:16;;;;;;;9.70;8.07;;;;;;;34.70;35.08;97888.38;5059594;28;20032;-81
2022/08/18 08:51:55;;;;;;;8.52;7.72;;;;;;;35.68;34.47;97894.16;5053626;28;20482;-81
2022/08/18 08:54:28;;;;;;;10.65;7.97;;;;;;;35.74;35.66;97903.50;5060607;28;20025;-81
2022/08/18 08:56:59;;;;;;;8.88;7.90;;;;;;;35.64;34.95;97902.19;5055730;28;20091;-80
2022/08/18 08:59:25;;;;;;;8.38;7.57;;;;;;;36.49;32.61;97898.81;5067969;28;20086;-82
2022/08/18 09:02:02;;;;;;;7.80;7.07;;;;;;;37.15;31.72;97903.53;5060808;28;20382;-81
2022/08/18 09:04:43;;;;;;;7.20;6.65;;;;;;;36.63;31.42;97915.69;5064521;28;20108;-80
2022/08/18 09:07:27;;;;;;;8.13;7.43;;;;;;;36.37;34.15;97911.53;5065531;28;20033;-80
2022/08/18 09:10:06;;;;;;;7.50;6.90;;;;;;;36.79;33.67;97914.06;5073391;28;20051;-80
2022/08/18 09:12:44;;;;;;;8.02;7.22;;;;;;;37.11;31.75;97909.50;5060213;28;20063;-80
2022/08/18 09:15:24;;;;;;;7.32;6.72;;;;;;;37.78;31.81;97906.25;5059883;28;20029;-80
2022/08/18 09:18:05;;;;;;;8.05;7.25;;;;;;;37.07;31.94;97911.09;5059716;28;20041;-81
2022/08/18 09:20:58;;;;;;;9.98;6.72;;;;;;;35.71;31.63;97903.78;5052956;28;20531;-80
2022/08/18 09:23:47;;;;;;;8.65;7.70;;;;;;;35.28;37.27;97921.06;5070910;28;20063;-79
2022/08/18 09:26:25;;;;;;;10.35;8.20;;;;;;;34.77;36.95;97912.03;5061197;28;20119;-80
2022/08/18 09:28:59;;;;;;;8.85;7.78;;;;;;;34.98;38.48;97919.13;5054192;28;20017;-80
2022/08/18 09:31:27;;;;;;;8.75;7.82;;;;;;;35.09;37.42;97919.97;5066789;28;20033;-80
2022/08/18 09:34:24;;;;;;;8.18;7.40;;;;;;;36.29;30.97;97910.53;5054934;28;20029;-80
2022/08/18 09:37:19;;;;;;;7.65;6.95;;;;;;;37.30;32.64;97919.06;5052601;28;20049;-80
2022/08/18 09:42:56;;;;;;;8.02;6.80;;;;;;;36.45;32.75;97915.47;5057815;28;20116;-80
2022/08/18 09:45:32;;;;;;;7.75;6.95;;;;;;;37.96;30.93;97912.13;5065209;28;20056;-80
2022/08/18 09:48:09;;;;;;;7.00;6.30;;;;;;;38.28;30.46;97912.38;5068213;28;20033;-80
2022/08/18 09:50:49;;;;;;;7.97;6.63;;;;;;;37.22;32.27;97912.34;5073192;28;20048;-80
2022/08/18 09:53:36;;;;;;;6.18;5.60;;;;;;;37.46;29.33;97913.78;5071833;28;20039;-80
2022/08/18 09:56:03;;;;;;;6.15;5.65;;;;;;;38.43;34.07;97914.84;5063028;28;20589;-80
2022/08/18 09:58:54;;;;;;;5.88;4.90;;;;;;;39.20;29.86;97913.22;5064109;28;20037;-80
2022/08/18 10:01:30;;;;;;;6.82;4.93;;;;;;;38.37;31.56;97914.91;5066452;28;20112;-80
2022/08/18 10:04:15;;;;;;;5.40;4.90;;;;;;;38.37;29.52;97914.91;5063095;28;20036;-80
2022/08/18 10:06:48;;;;;;;5.30;4.90;;;;;;;38.26;32.08;97920.72;5056510;28;20036;-80
2022/08/18 10:09:42;;;;;;;4.95;4.55;;;;;;;39.00;27.67;97908.72;5056354;28;20037;-81
2022/08/18 10:12:22;;;;;;;5.18;4.72;;;;;;;38.85;31.00;97914.16;5059220;28;20039;-80
2022/08/18 10:15:01;;;;;;;5.00;4.60;;;;;;;38.88;29.82;97909.44;5057420;28;20112;-80
2022/08/18 10:17:55;;;;;;;5.88;5.38;;;;;;;38.48;28.12;97914.03;5056710;28;20045;-80
2022/08/18 10:20:34;;;;;;;5.13;4.60;;;;;;;38.00;30.85;97904.00;5062963;28;20029;-80
2022/08/18 10:23:00;;;;;;;5.03;4.63;;;;;;;38.46;31.76;97897.31;5068849;28;20020;-81
2022/08/18 10:25:32;;;;;;;5.10;4.70;;;;;;;38.61;28.52;97885.44;5065215;28;20033;-81
2022/08/18 10:27:58;;;;;;;5.47;4.97;;;;;;;38.00;31.57;97883.94;5067165;28;20513;-80
2022/08/18 10:30:33;;;;;;;5.63;5.10;;;;;;;36.66;31.73;97888.09;5072606;28;20040;-80
2022/08/18 10:33:11;;;;;;;6.05;5.63;;;;;;;38.02;30.09;97889.13;5071959;28;20389;-80
2022/08/18 10:35:37;;;;;;;4.88;4.47;;;;;;;39.42;27.49;97898.50;5075998;28;20510;-81
2022/08/18 10:38:24;;;;;;;5.70;5.20;;;;;;;38.72;27.11;97901.78;5070165;28;20028;-80
2022/08/18 10:41:19;;;;;;;5.95;5.35;;;;;;;37.78;27.79;97894.81;5070208;28;20024;-80
2022/08/18 10:43:49;;;;;;;5.68;5.18;;;;;;;38.36;29.34;97890.41;5054429;28;20052;-81
2022/08/18 10:46:25;;;;;;;6.00;4.75;;;;;;;38.94;29.50;97879.31;5056580;28;20036;-80
2022/08/18 10:49:13;;;;;;;4.88;4.47;;;;;;;39.27;27.38;97875.25;5056889;28;20037;-81
2022/08/18 10:51:48;;;;;;;4.60;4.30;;;;;;;38.92;30.78;97869.69;5054434;28;20037;-80
2022/08/18 10:54:42;;;;;;;6.65;4.60;;;;;;;38.08;27.88;97877.63;5053410;28;20025;-80
2022/08/18 10:57:17;;;;;;;5.55;4.57;;;;;;;38.15;31.13;97869.22;5057086;28;20052;-80
2022/08/18 11:00:12;;;;;;;5.28;4.82;;;;;;;38.70;27.63;97864.97;5063299;28;20520;-80
2022/08/18 11:03:08;;;;;;;4.25;3.95;;;;;;;38.78;27.26;97863.09;5055249;28;20073;-80
2022/08/18 11:05:35;;;;;;;4.93;4.53;;;;;;;38.52;29.22;97866.50;5067116;28;20048;-81
2022/08/18 11:08:05;;;;;;;5.80;5.30;;;;;;;38.31;31.75;97873.25;5063197;28;20037;-80
2022/08/18 11:10:47;;;;;;;5.35;4.80;;;;;;;38.72;27.14;97871.75;5066319;28;20036;-81
2022/08/18 11:13:31;;;;;;;5.68;4.78;;;;;;;39.02;30.63;97860.16;5058990;28;20032;-81
2022/08/18 11:16:14;;;;;;;4.75;4.35;;;;;;;39.26;27.62;97860.09;5069489;28;20037;-81
2022/08/18 11:18:50;;;;;;;6.15;4.35;;;;;;;38.91;29.12;97853.78;5066860;28;20569;-80
2022/08/18 11:21:32;;;;;;;5.68;5.07;;;;;;;39.01;28.09;97854.94;5063797;28;20067;-83
2022/08/18 11:24:14;;;;;;;6.93;4.95;;;;;;;38.36;27.26;97855.19;5064327;28;20489;-83
2022/08/18 11:26:48;;;;;;;5.38;4.40;;;;;;;38.89;30.43;97853.53;5060525;28;20041;-84
2022/08/18 11:29:27;;;;;;;6.93;6.03;;;;;;;39.08;29.88;97851.44;5056887;28;20033;-83
2022/08/18 11:32:01;;;;;;;5.43;4.93;;;;;;;39.19;29.02;97845.56;5064374;28;20060;-83
2022/08/18 11:34:52;;;;;;;4.97;4.50;;;;;;;39.01;28.25;97835.63;5074911;28;20100;-82
2022/08/18 11:37:40;;;;;;;4.70;4.40;;;;;;;39.40;27.90;97828.56;5069754;28;20051;-82
2022/08/18 11:40:35;;;;;;;5.85;5.35;;;;;;;40.17;26.23;97826.50;5066960;28;20051;-83
2022/08/18 11:43:16;;;;;;;4.65;4.30;;;;;;;40.28;29.95;97829.94;5074468;28;20041;-82
2022/08/18 11:45:45;;;;;;;5.82;4.60;;;;;;;39.28;27.90;97822.97;5067755;28;20029;-82
2022/08/18 11:48:31;;;;;;;5.82;5.32;;;;;;;38.08;32.71;97828.88;5064514;28;20047;-83
2022/08/18 11:50:58;;;;;;;5.65;5.22;;;;;;;37.53;34.78;97830.13;5058660;28;20036;-83
2022/08/18 11:53:51;;;;;;;6.30;5.70;;;;;;;38.72;30.57;97818.53;5054376;28;20375;-83
2022/08/18 11:56:25;;;;;;;8.35;5.80;;;;;;;39.66;26.61;97817.94;5055519;28;20035;-83
2022/08/18 11:58:59;;;;;;;6.20;5.70;;;;;;;39.54;28.60;97816.56;5054380;28;20040;-83
2022/08/18 12:01:43;;;;;;;5.68;5.18;;;;;;;39.64;27.68;97820.59;5054362;28;20025;-83
2022/08/18 12:04:30;;;;;;;5.38;4.78;;;;;;;40.30;29.18;97810.00;5054569;28;20029;-84
2022/08/18 12:07:08;;;;;;;5.13;4.72;;;;;;;39.79;29.20;97809.38;5053025;28;20036;-83
2022/08/18 12:09:47;;;;;;;5.50;5.03;;;;;;;39.29;26.04;97803.63;5054143;28;20052;-83
2022/08/18 12:12:17;;;;;;;5.57;5.07;;;;;;;38.46;31.83;97794.03;5057577;28;20062;-83
2022/08/18 12:15:13;;;;;;;5.97;5.40;;;;;;;38.86;31.50;97783.63;5054528;28;20029;-83
2022/08/18 12:17:40;;;;;;;5.45;5.05;;;;;;;39.25;32.54;97788.81;5053855;28;20072;-83
2022/08/18 12:20:08;;;;;;;5.57;5.07;;;;;;;39.42;31.12;97774.19;5054039;28;20037;-83
2022/08/18 12:22:37;;;;;;;6.03;5.50;;;;;;;39.79;32.22;97782.72;5053872;28;20028;-82
2022/08/18 12:25:10;;;;;;;5.88;5.38;;;;;;;38.99;30.44;97782.91;5064491;28;20394;-81